Time,TemperatureF,DewpointF,PressureIn,WindDirection,WindDirectionDegrees,WindSpeedMPH,WindSpeedGustMPH,Humidity,HourlyPrecipIn,Conditions,Clouds,dailyrainin,SolarRadiationWatts/m^2,SoftwareType,DateUTC
2013-03-04 00:01:00,27.0,26.0,-100.00,NE,35,0.0,2.0,95,0.00,,,0.00,0.000000,,2013-03-04 07:01:00,
2013-03-04 00:32:00,27.0,26.0,-100.00,North,2,0.0,1.0,95,0.00,,,0.00,0.000000,,2013-03-04 07:32:00,
2013-03-04 00:42:00,27.0,26.0,-100.00,North,2,0.0,1.0,95,0.00,,,0.00,0.000000,,2013-03-04 07:42:00,
2013-03-04 00:52:00,27.0,26.0,-100.00,North,2,0.0,1.0,95,0.00,,,0.00,0.000000,,2013-03-04 07:52:00,
2013-03-04 01:02:00,27.0,26.0,-100.00,North,2,0.0,1.0,95,0.00,,,0.00,0.000000,,2013-03-04 08:02:00,
2013-03-04 01:32:00,27.0,26.0,-100.00,South,183,0.0,2.0,95,0.00,,,0.00,0.000000,,2013-03-04 08:32:00,
2013-03-04 01:42:00,27.0,26.0,-100.00,South,183,0.0,2.0,95,0.00,,,0.00,0.000000,,2013-03-04 08:42:00,
2013-03-04 01:52:00,27.0,26.0,-100.00,South,183,0.0,2.0,95,0.00,,,0.00,0.000000,,2013-03-04 08:52:00,
2013-03-04 02:01:00,27.0,26.0,-100.00,South,183,0.0,2.0,95,0.00,,,0.00,0.000000,,2013-03-04 09:01:00,
2013-03-04 02:32:00,27.0,26.0,-100.00,NE,56,0.0,0.0,95,0.00,,,0.00,0.000000,,2013-03-04 09:32:00,
2013-03-04 02:42:00,27.0,26.0,-100.00,NE,56,0.0,0.0,95,0.00,,,0.00,0.000000,,2013-03-04 09:42:00,
2013-03-04 02:52:00,27.0,26.0,-100.00,NE,56,0.0,0.0,95,0.00,,,0.00,0.000000,,2013-03-04 09:52:00,
2013-03-04 03:01:00,27.0,26.0,-100.00,NE,56,0.0,0.0,95,0.00,,,0.00,0.000000,,2013-03-04 10:01:00,
2013-03-04 03:32:00,26.0,25.0,-100.00,NNE,29,1.0,3.0,95,0.00,,,0.00,0.000000,,2013-03-04 10:32:00,
2013-03-04 03:42:00,26.0,25.0,-100.00,NNE,29,1.0,3.0,95,0.00,,,0.00,0.000000,,2013-03-04 10:42:00,
2013-03-04 03:52:00,26.0,25.0,-100.00,NNE,29,1.0,3.0,95,0.00,,,0.00,0.000000,,2013-03-04 10:52:00,
2013-03-04 04:02:00,26.0,25.0,-100.00,NNE,29,1.0,3.0,95,0.00,,,0.00,0.000000,,2013-03-04 11:02:00,
2013-03-04 04:32:00,25.0,24.0,-100.00,NNE,21,3.0,5.0,94,0.00,,,-99.99,0.000000,,2013-03-04 11:32:00,
2013-03-04 04:42:00,25.0,24.0,-100.00,NNE,21,3.0,5.0,94,0.00,,,-99.99,0.000000,,2013-03-04 11:42:00,
2013-03-04 04:52:00,25.0,24.0,-100.00,NNE,21,3.0,5.0,94,0.00,,,-99.99,0.000000,,2013-03-04 11:52:00,
2013-03-04 05:01:00,25.0,24.0,-100.00,NNE,21,3.0,5.0,94,0.00,,,-99.99,0.000000,,2013-03-04 12:01:00,
2013-03-04 05:32:00,25.0,24.0,-100.00,SSE,161,0.0,6.0,94,0.00,,,0.00,0.000000,,2013-03-04 12:32:00,
2013-03-04 05:42:00,25.0,24.0,-100.00,SSE,161,0.0,6.0,94,0.00,,,0.00,0.000000,,2013-03-04 12:42:00,
2013-03-04 05:53:00,25.0,24.0,-100.00,SSE,161,0.0,6.0,94,0.00,,,0.00,0.000000,,2013-03-04 12:53:00,
2013-03-04 06:02:00,25.0,24.0,-100.00,SSE,161,0.0,6.0,94,0.00,,,0.00,0.000000,,2013-03-04 13:02:00,
2013-03-04 06:32:00,25.0,24.0,-100.00,East,97,0.0,2.0,95,0.00,,,0.00,0.000000,,2013-03-04 13:32:00,
2013-03-04 06:42:00,25.0,24.0,-100.00,East,97,0.0,2.0,95,0.00,,,0.00,0.000000,,2013-03-04 13:42:00,
2013-03-04 06:52:00,25.0,24.0,-100.00,East,97,0.0,2.0,95,0.00,,,0.00,0.000000,,2013-03-04 13:52:00,
2013-03-04 07:01:00,25.0,24.0,-100.00,East,97,0.0,2.0,95,0.00,,,0.00,0.000000,,2013-03-04 14:01:00,
2013-03-04 07:32:00,25.0,24.0,-100.00,NNE,31,4.0,7.0,94,0.00,,,0.00,1.000000,,2013-03-04 14:32:00,
2013-03-04 07:42:00,25.0,24.0,-100.00,NNE,31,4.0,7.0,94,0.00,,,0.00,1.000000,,2013-03-04 14:42:00,
2013-03-04 07:52:00,25.0,24.0,-100.00,NNE,31,4.0,7.0,94,0.00,,,0.00,1.000000,,2013-03-04 14:52:00,
2013-03-04 08:01:00,25.0,24.0,-100.00,NNE,31,4.0,7.0,94,0.00,,,0.00,1.000000,,2013-03-04 15:01:00,
2013-03-04 08:32:00,28.0,25.0,-100.00,NNE,21,3.0,9.0,87,0.00,,,0.00,20.000000,,2013-03-04 15:32:00,
2013-03-04 08:42:00,28.0,25.0,-100.00,NNE,21,3.0,9.0,87,0.00,,,0.00,20.000000,,2013-03-04 15:42:00,
2013-03-04 08:52:00,28.0,25.0,-100.00,NNE,21,3.0,9.0,87,0.00,,,0.00,20.000000,,2013-03-04 15:52:00,
2013-03-04 09:02:00,28.0,25.0,-100.00,NNE,21,3.0,9.0,87,0.00,,,0.00,20.000000,,2013-03-04 16:02:00,
2013-03-04 09:32:00,34.0,25.0,-100.00,NNE,17,4.0,9.0,68,0.00,,,0.00,89.000000,,2013-03-04 16:32:00,
2013-03-04 09:42:00,34.0,25.0,-100.00,NNE,17,4.0,9.0,68,0.00,,,0.00,89.000000,,2013-03-04 16:42:00,
2013-03-04 09:52:00,34.0,25.0,-100.00,NNE,17,4.0,9.0,68,0.00,,,0.00,89.000000,,2013-03-04 16:52:00,
2013-03-04 10:02:00,34.0,25.0,-100.00,NNE,17,4.0,9.0,68,0.00,,,0.00,89.000000,,2013-03-04 17:02:00,
2013-03-04 10:32:00,33.0,23.0,-100.00,NNW,344,6.0,17.0,66,0.00,,,0.00,533.000000,,2013-03-04 17:32:00,
2013-03-04 10:42:00,33.0,23.0,-100.00,NNW,344,6.0,17.0,66,0.00,,,0.00,533.000000,,2013-03-04 17:42:00,
2013-03-04 10:52:00,33.0,23.0,-100.00,NNW,344,6.0,17.0,66,0.00,,,0.00,533.000000,,2013-03-04 17:52:00,
2013-03-04 11:01:00,33.0,23.0,-100.00,NNW,344,6.0,17.0,66,0.00,,,0.00,533.000000,,2013-03-04 18:01:00,
2013-03-04 11:32:00,30.0,21.0,-100.00,WNW,290,5.0,19.0,70,0.12,,,0.12,421.000000,,2013-03-04 18:32:00,
2013-03-04 11:42:00,30.0,21.0,-100.00,WNW,290,5.0,19.0,70,0.12,,,0.12,421.000000,,2013-03-04 18:42:00,
2013-03-04 11:52:00,30.0,21.0,-100.00,WNW,290,5.0,19.0,70,0.12,,,0.12,421.000000,,2013-03-04 18:52:00,
2013-03-04 12:02:00,30.0,21.0,-100.00,WNW,290,5.0,19.0,70,0.12,,,0.12,421.000000,,2013-03-04 19:02:00,
2013-03-04 12:32:00,41.0,17.0,-100.00,NNW,338,5.0,10.0,37,0.15,,,0.27,897.000000,,2013-03-04 19:32:00,
2013-03-04 12:42:00,41.0,17.0,-100.00,NNW,338,5.0,10.0,37,0.15,,,0.27,897.000000,,2013-03-04 19:42:00,
2013-03-04 12:52:00,41.0,17.0,-100.00,NNW,338,5.0,10.0,37,0.15,,,0.27,897.000000,,2013-03-04 19:52:00,
2013-03-04 13:02:00,41.0,17.0,-100.00,NNW,338,5.0,10.0,37,0.15,,,0.27,897.000000,,2013-03-04 20:02:00,
2013-03-04 13:32:00,36.0,17.0,-100.00,NNE,24,5.0,21.0,46,0.09,,,0.36,958.000000,,2013-03-04 20:32:00,
2013-03-04 13:42:00,36.0,17.0,-100.00,NNE,24,5.0,21.0,46,0.09,,,0.36,958.000000,,2013-03-04 20:42:00,
2013-03-04 13:52:00,36.0,17.0,-100.00,NNE,24,5.0,21.0,46,0.09,,,0.36,958.000000,,2013-03-04 20:52:00,
2013-03-04 14:02:00,36.0,17.0,-100.00,NNE,24,5.0,21.0,46,0.09,,,0.36,958.000000,,2013-03-04 21:02:00,
2013-03-04 14:32:00,28.0,20.0,-100.00,North,4,7.0,20.0,73,0.02,,,0.38,488.000000,,2013-03-04 21:32:00,
2013-03-04 14:43:00,28.0,20.0,-100.00,North,4,7.0,20.0,73,0.02,,,0.38,488.000000,,2013-03-04 21:43:00,
2013-03-04 14:53:00,28.0,20.0,-100.00,North,4,7.0,20.0,73,0.02,,,0.38,488.000000,,2013-03-04 21:53:00,
2013-03-04 15:02:00,28.0,20.0,-100.00,North,4,7.0,20.0,73,0.02,,,0.38,488.000000,,2013-03-04 22:02:00,
2013-03-04 15:32:00,17.0,13.0,-100.00,North,357,9.0,29.0,84,0.00,,,0.38,215.000000,,2013-03-04 22:32:00,
2013-03-04 15:43:00,17.0,13.0,-100.00,North,357,9.0,29.0,84,0.00,,,0.38,215.000000,,2013-03-04 22:43:00,
2013-03-04 15:52:00,17.0,13.0,-100.00,North,357,9.0,29.0,84,0.00,,,0.38,215.000000,,2013-03-04 22:52:00,
2013-03-04 16:02:00,17.0,13.0,-100.00,North,357,9.0,29.0,84,0.00,,,0.38,215.000000,,2013-03-04 23:02:00,
2013-03-04 16:32:00,16.0,12.0,-100.00,North,2,7.0,18.0,83,0.00,,,0.38,146.000000,,2013-03-04 23:32:00,
2013-03-04 16:42:00,16.0,12.0,-100.00,North,2,7.0,18.0,83,0.00,,,0.38,146.000000,,2013-03-04 23:42:00,
2013-03-04 16:52:00,16.0,12.0,-100.00,North,2,7.0,18.0,83,0.00,,,0.38,146.000000,,2013-03-04 23:52:00,
2013-03-04 17:02:00,16.0,12.0,-100.00,North,2,7.0,18.0,83,0.00,,,0.38,146.000000,,2013-03-05 00:02:00,
2013-03-04 17:32:00,17.0,8.0,-100.00,NNW,339,7.0,16.0,66,0.00,,,0.38,124.000000,,2013-03-05 00:32:00,
2013-03-04 17:42:00,17.0,8.0,-100.00,NNW,339,7.0,16.0,66,0.00,,,0.38,124.000000,,2013-03-05 00:42:00,
2013-03-04 17:52:00,17.0,8.0,-100.00,NNW,339,7.0,16.0,66,0.00,,,0.38,124.000000,,2013-03-05 00:52:00,
2013-03-04 18:01:00,17.0,8.0,-100.00,NNW,339,7.0,16.0,66,0.00,,,0.38,124.000000,,2013-03-05 01:01:00,
2013-03-04 19:32:00,9.0,5.0,-100.00,NE,54,3.0,6.0,83,-99.99,,,0.38,0.000000,,2013-03-05 02:32:00,
2013-03-04 19:42:00,9.0,5.0,-100.00,NE,54,3.0,6.0,83,-99.99,,,0.38,0.000000,,2013-03-05 02:42:00,
2013-03-04 19:52:00,9.0,5.0,-100.00,NE,54,3.0,6.0,83,-99.99,,,0.38,0.000000,,2013-03-05 02:52:00,
2013-03-04 20:02:00,9.0,5.0,-100.00,NE,54,3.0,6.0,83,-99.99,,,0.38,0.000000,,2013-03-05 03:02:00,
2013-03-04 20:32:00,9.0,2.0,-100.00,North,359,4.0,8.0,73,0.00,,,0.38,0.000000,,2013-03-05 03:32:00,
2013-03-04 20:42:00,9.0,2.0,-100.00,North,359,4.0,8.0,73,0.00,,,0.38,0.000000,,2013-03-05 03:42:00,
2013-03-04 20:52:00,9.0,2.0,-100.00,North,359,4.0,8.0,73,0.00,,,0.38,0.000000,,2013-03-05 03:52:00,
2013-03-04 21:01:00,9.0,2.0,-100.00,North,359,4.0,8.0,73,0.00,,,0.38,0.000000,,2013-03-05 04:01:00,
2013-03-04 21:32:00,6.0,0.0,-100.00,NNW,348,3.0,9.0,74,0.00,,,0.38,0.000000,,2013-03-05 04:32:00,
2013-03-04 21:42:00,6.0,0.0,-100.00,NNW,348,3.0,9.0,74,0.00,,,0.38,0.000000,,2013-03-05 04:42:00,
2013-03-04 21:52:00,6.0,0.0,-100.00,NNW,348,3.0,9.0,74,0.00,,,0.38,0.000000,,2013-03-05 04:52:00,
2013-03-04 22:02:00,6.0,0.0,-100.00,NNW,348,3.0,9.0,74,0.00,,,0.38,0.000000,,2013-03-05 05:02:00,
2013-03-04 22:32:00,5.0,-1.0,-100.00,NW,326,3.0,8.0,75,0.00,,,0.38,0.000000,,2013-03-05 05:32:00,
2013-03-04 22:42:00,5.0,-1.0,-100.00,NW,326,3.0,8.0,75,0.00,,,0.38,0.000000,,2013-03-05 05:42:00,
2013-03-04 22:52:00,5.0,-1.0,-100.00,NW,326,3.0,8.0,75,0.00,,,0.38,0.000000,,2013-03-05 05:52:00,
2013-03-04 23:01:00,5.0,-1.0,-100.00,NW,326,3.0,8.0,75,0.00,,,0.38,0.000000,,2013-03-05 06:01:00,
2013-03-04 23:32:00,3.0,-2.0,-100.00,NNW,331,5.0,7.0,79,0.00,,,0.38,0.000000,,2013-03-05 06:32:00,
2013-03-04 23:42:00,3.0,-2.0,-100.00,NNW,331,5.0,7.0,79,0.00,,,0.38,0.000000,,2013-03-05 06:42:00,
2013-03-04 23:52:00,3.0,-2.0,-100.00,NNW,331,5.0,7.0,79,0.00,,,0.38,0.000000,,2013-03-05 06:52:00,